sensor_id;sensor_type;location;lat;lon;timestamp;P1;durP1;ratioP1;P2;durP2;ratioP2
23496;SDS011;11925;48.122;11.560;2023-09-30T00:02:01;23.33;;;8.52;;
23496;SDS011;11925;48.122;11.560;2023-09-30T00:04:29;29.10;;;9.40;;
23496;SDS011;11925;48.122;11.560;2023-09-30T00:06:58;25.98;;;9.13;;
23496;SDS011;11925;48.122;11.560;2023-09-30T00:09:27;24.15;;;8.98;;
23496;SDS011;11925;48.122;11.560;2023-09-30T00:11:56;25.00;;;8.82;;
23496;SDS011;11925;48.122;11.560;2023-09-30T00:14:26;23.80;;;8.90;;
23496;SDS011;11925;48.122;11.560;2023-09-30T00:16:56;26.63;;;9.40;;
23496;SDS011;11925;48.122;11.560;2023-09-30T00:19:24;27.67;;;9.43;;
23496;SDS011;11925;48.122;11.560;2023-09-30T00:21:53;25.73;;;9.23;;
23496;SDS011;11925;48.122;11.560;2023-09-30T00:24:21;26.13;;;8.95;;
23496;SDS011;11925;48.122;11.560;2023-09-30T00:26:51;23.92;;;9.13;;
23496;SDS011;11925;48.122;11.560;2023-09-30T00:29:20;27.50;;;9.30;;
23496;SDS011;11925;48.122;11.560;2023-09-30T00:31:48;26.83;;;9.45;;
23496;SDS011;11925;48.122;11.560;2023-09-30T00:34:17;22.67;;;8.88;;
23496;SDS011;11925;48.122;11.560;2023-09-30T00:36:45;23.42;;;9.68;;
23496;SDS011;11925;48.122;11.560;2023-09-30T00:39:14;27.20;;;9.00;;
23496;SDS011;11925;48.122;11.560;2023-09-30T00:41:42;26.00;;;9.43;;
23496;SDS011;11925;48.122;11.560;2023-09-30T00:44:12;24.80;;;8.95;;
23496;SDS011;11925;48.122;11.560;2023-09-30T00:46:40;24.88;;;9.35;;
23496;SDS011;11925;48.122;11.560;2023-09-30T00:49:09;23.20;;;9.38;;
23496;SDS011;11925;48.122;11.560;2023-09-30T00:51:41;24.33;;;8.88;;
23496;SDS011;11925;48.122;11.560;2023-09-30T00:54:11;25.13;;;9.07;;
23496;SDS011;11925;48.122;11.560;2023-09-30T00:56:43;26.13;;;9.10;;
23496;SDS011;11925;48.122;11.560;2023-09-30T00:59:14;27.55;;;9.45;;
23496;SDS011;11925;48.122;11.560;2023-09-30T01:01:44;20.67;;;8.13;;
23496;SDS011;11925;48.122;11.560;2023-09-30T01:04:13;22.50;;;9.35;;
23496;SDS011;11925;48.122;11.560;2023-09-30T01:06:42;26.45;;;10.50;;
23496;SDS011;11925;48.122;11.560;2023-09-30T01:09:11;22.02;;;9.38;;
23496;SDS011;11925;48.122;11.560;2023-09-30T01:11:40;22.33;;;9.30;;
23496;SDS011;11925;48.122;11.560;2023-09-30T01:16:58;23.80;;;8.73;;
23496;SDS011;11925;48.122;11.560;2023-09-30T01:19:26;28.13;;;10.07;;
23496;SDS011;11925;48.122;11.560;2023-09-30T01:21:57;28.08;;;9.93;;
23496;SDS011;11925;48.122;11.560;2023-09-30T01:24:27;24.38;;;8.93;;
23496;SDS011;11925;48.122;11.560;2023-09-30T01:26:56;27.05;;;9.77;;
23496;SDS011;11925;48.122;11.560;2023-09-30T01:29:25;56.65;;;30.13;;
23496;SDS011;11925;48.122;11.560;2023-09-30T01:31:55;135.73;;;79.07;;
23496;SDS011;11925;48.122;11.560;2023-09-30T01:34:23;201.05;;;117.18;;
23496;SDS011;11925;48.122;11.560;2023-09-30T01:36:52;195.93;;;113.15;;
23496;SDS011;11925;48.122;11.560;2023-09-30T01:39:22;231.05;;;135.27;;
23496;SDS011;11925;48.122;11.560;2023-09-30T01:41:51;268.25;;;142.63;;
23496;SDS011;11925;48.122;11.560;2023-09-30T01:44:20;203.85;;;108.35;;
23496;SDS011;11925;48.122;11.560;2023-09-30T01:46:48;156.13;;;82.28;;
23496;SDS011;11925;48.122;11.560;2023-09-30T01:49:17;168.82;;;95.30;;
23496;SDS011;11925;48.122;11.560;2023-09-30T01:51:45;188.85;;;110.20;;
23496;SDS011;11925;48.122;11.560;2023-09-30T01:54:14;188.85;;;106.47;;
23496;SDS011;11925;48.122;11.560;2023-09-30T01:56:44;209.25;;;111.97;;
23496;SDS011;11925;48.122;11.560;2023-09-30T01:59:12;190.07;;;99.63;;
23496;SDS011;11925;48.122;11.560;2023-09-30T02:01:40;131.98;;;67.72;;
23496;SDS011;11925;48.122;11.560;2023-09-30T02:04:09;102.20;;;53.90;;
23496;SDS011;11925;48.122;11.560;2023-09-30T02:06:37;107.45;;;56.15;;
23496;SDS011;11925;48.122;11.560;2023-09-30T02:09:06;100.30;;;49.05;;
23496;SDS011;11925;48.122;11.560;2023-09-30T02:11:35;88.97;;;45.47;;
23496;SDS011;11925;48.122;11.560;2023-09-30T02:14:05;73.95;;;36.97;;
23496;SDS011;11925;48.122;11.560;2023-09-30T02:16:34;56.95;;;28.50;;
23496;SDS011;11925;48.122;11.560;2023-09-30T02:19:02;53.30;;;27.33;;
23496;SDS011;11925;48.122;11.560;2023-09-30T02:21:31;43.13;;;20.08;;
23496;SDS011;11925;48.122;11.560;2023-09-30T02:23:59;43.10;;;18.70;;
23496;SDS011;11925;48.122;11.560;2023-09-30T02:26:29;38.40;;;16.70;;
23496;SDS011;11925;48.122;11.560;2023-09-30T02:28:57;36.55;;;15.27;;
23496;SDS011;11925;48.122;11.560;2023-09-30T02:31:27;32.50;;;12.60;;
23496;SDS011;11925;48.122;11.560;2023-09-30T02:33:55;30.17;;;13.20;;
23496;SDS011;11925;48.122;11.560;2023-09-30T02:36:24;30.00;;;11.15;;
23496;SDS011;11925;48.122;11.560;2023-09-30T02:38:54;28.50;;;10.80;;
23496;SDS011;11925;48.122;11.560;2023-09-30T02:41:22;30.02;;;10.55;;
23496;SDS011;11925;48.122;11.560;2023-09-30T02:43:50;31.15;;;11.18;;
23496;SDS011;11925;48.122;11.560;2023-09-30T02:46:19;27.65;;;10.52;;
23496;SDS011;11925;48.122;11.560;2023-09-30T02:48:48;29.17;;;10.90;;
23496;SDS011;11925;48.122;11.560;2023-09-30T02:51:18;27.42;;;11.77;;
23496;SDS011;11925;48.122;11.560;2023-09-30T02:53:47;27.45;;;10.90;;
23496;SDS011;11925;48.122;11.560;2023-09-30T02:56:15;28.58;;;10.15;;
23496;SDS011;11925;48.122;11.560;2023-09-30T02:58:46;28.48;;;10.20;;
23496;SDS011;11925;48.122;11.560;2023-09-30T03:01:14;30.88;;;11.20;;
23496;SDS011;11925;48.122;11.560;2023-09-30T03:03:44;27.23;;;10.75;;
23496;SDS011;11925;48.122;11.560;2023-09-30T03:06:17;27.05;;;10.18;;
23496;SDS011;11925;48.122;11.560;2023-09-30T03:08:46;26.02;;;10.35;;
23496;SDS011;11925;48.122;11.560;2023-09-30T03:11:14;29.13;;;10.50;;
23496;SDS011;11925;48.122;11.560;2023-09-30T03:13:43;23.05;;;9.07;;
23496;SDS011;11925;48.122;11.560;2023-09-30T03:16:11;29.58;;;9.57;;
23496;SDS011;11925;48.122;11.560;2023-09-30T03:18:40;29.27;;;11.80;;
23496;SDS011;11925;48.122;11.560;2023-09-30T03:21:14;30.63;;;11.83;;
23496;SDS011;11925;48.122;11.560;2023-09-30T03:23:43;32.65;;;12.13;;
23496;SDS011;11925;48.122;11.560;2023-09-30T03:26:11;25.95;;;11.05;;
23496;SDS011;11925;48.122;11.560;2023-09-30T03:28:40;30.67;;;11.25;;
23496;SDS011;11925;48.122;11.560;2023-09-30T03:31:08;27.00;;;11.00;;
23496;SDS011;11925;48.122;11.560;2023-09-30T03:33:37;28.77;;;10.75;;
23496;SDS011;11925;48.122;11.560;2023-09-30T03:36:08;26.40;;;10.63;;
23496;SDS011;11925;48.122;11.560;2023-09-30T03:38:39;31.90;;;11.55;;
23496;SDS011;11925;48.122;11.560;2023-09-30T03:41:08;29.27;;;10.20;;
23496;SDS011;11925;48.122;11.560;2023-09-30T03:43:39;29.45;;;10.23;;
23496;SDS011;11925;48.122;11.560;2023-09-30T03:46:08;28.40;;;11.23;;
23496;SDS011;11925;48.122;11.560;2023-09-30T03:48:38;27.08;;;10.38;;
23496;SDS011;11925;48.122;11.560;2023-09-30T03:51:10;25.33;;;9.80;;
23496;SDS011;11925;48.122;11.560;2023-09-30T03:53:42;25.85;;;10.32;;
23496;SDS011;11925;48.122;11.560;2023-09-30T03:56:11;27.02;;;9.55;;
23496;SDS011;11925;48.122;11.560;2023-09-30T03:58:40;29.70;;;10.55;;
23496;SDS011;11925;48.122;11.560;2023-09-30T04:01:10;27.27;;;10.40;;
23496;SDS011;11925;48.122;11.560;2023-09-30T04:03:40;26.88;;;10.65;;
23496;SDS011;11925;48.122;11.560;2023-09-30T04:06:10;31.25;;;11.15;;
23496;SDS011;11925;48.122;11.560;2023-09-30T04:08:39;27.83;;;9.90;;
23496;SDS011;11925;48.122;11.560;2023-09-30T04:11:11;32.25;;;11.73;;
23496;SDS011;11925;48.122;11.560;2023-09-30T04:13:44;26.42;;;10.35;;
23496;SDS011;11925;48.122;11.560;2023-09-30T04:16:13;25.88;;;9.65;;
23496;SDS011;11925;48.122;11.560;2023-09-30T04:18:42;23.85;;;9.80;;
23496;SDS011;11925;48.122;11.560;2023-09-30T04:21:10;24.35;;;10.27;;
23496;SDS011;11925;48.122;11.560;2023-09-30T04:23:39;24.83;;;9.88;;
23496;SDS011;11925;48.122;11.560;2023-09-30T04:26:08;24.52;;;9.73;;
23496;SDS011;11925;48.122;11.560;2023-09-30T04:28:38;23.48;;;9.40;;
23496;SDS011;11925;48.122;11.560;2023-09-30T04:31:06;23.65;;;8.93;;
23496;SDS011;11925;48.122;11.560;2023-09-30T04:33:35;28.77;;;10.38;;
23496;SDS011;11925;48.122;11.560;2023-09-30T04:36:04;28.17;;;10.23;;
23496;SDS011;11925;48.122;11.560;2023-09-30T04:38:35;27.58;;;10.27;;
23496;SDS011;11925;48.122;11.560;2023-09-30T04:41:04;26.17;;;9.75;;
23496;SDS011;11925;48.122;11.560;2023-09-30T04:43:34;27.65;;;8.75;;
23496;SDS011;11925;48.122;11.560;2023-09-30T04:46:06;24.65;;;9.32;;
23496;SDS011;11925;48.122;11.560;2023-09-30T04:48:35;28.08;;;9.60;;
23496;SDS011;11925;48.122;11.560;2023-09-30T04:51:05;24.48;;;9.15;;
23496;SDS011;11925;48.122;11.560;2023-09-30T04:53:35;24.17;;;8.80;;
23496;SDS011;11925;48.122;11.560;2023-09-30T04:56:04;23.63;;;9.63;;
23496;SDS011;11925;48.122;11.560;2023-09-30T04:58:33;24.55;;;8.82;;
23496;SDS011;11925;48.122;11.560;2023-09-30T05:01:01;23.70;;;8.38;;
23496;SDS011;11925;48.122;11.560;2023-09-30T05:03:31;25.52;;;8.90;;
23496;SDS011;11925;48.122;11.560;2023-09-30T05:06:00;23.83;;;9.18;;
23496;SDS011;11925;48.122;11.560;2023-09-30T05:08:29;23.35;;;9.25;;
23496;SDS011;11925;48.122;11.560;2023-09-30T05:10:57;25.63;;;10.02;;
23496;SDS011;11925;48.122;11.560;2023-09-30T05:13:26;21.83;;;8.60;;
23496;SDS011;11925;48.122;11.560;2023-09-30T05:15:54;22.45;;;8.75;;
23496;SDS011;11925;48.122;11.560;2023-09-30T05:18:23;26.63;;;9.02;;
23496;SDS011;11925;48.122;11.560;2023-09-30T05:20:53;22.95;;;8.27;;
23496;SDS011;11925;48.122;11.560;2023-09-30T05:23:21;25.02;;;9.38;;
23496;SDS011;11925;48.122;11.560;2023-09-30T05:25:50;24.73;;;9.25;;
23496;SDS011;11925;48.122;11.560;2023-09-30T05:28:19;22.20;;;8.77;;
23496;SDS011;11925;48.122;11.560;2023-09-30T05:30:48;24.40;;;8.27;;
23496;SDS011;11925;48.122;11.560;2023-09-30T05:33:17;22.35;;;8.68;;
23496;SDS011;11925;48.122;11.560;2023-09-30T05:35:45;21.80;;;8.43;;
23496;SDS011;11925;48.122;11.560;2023-09-30T05:38:15;26.77;;;9.07;;
23496;SDS011;11925;48.122;11.560;2023-09-30T05:40:47;23.88;;;8.65;;
23496;SDS011;11925;48.122;11.560;2023-09-30T05:43:16;22.38;;;8.70;;
23496;SDS011;11925;48.122;11.560;2023-09-30T05:45:44;24.33;;;8.70;;
23496;SDS011;11925;48.122;11.560;2023-09-30T05:48:16;22.90;;;8.88;;
23496;SDS011;11925;48.122;11.560;2023-09-30T05:50:45;25.25;;;9.27;;
23496;SDS011;11925;48.122;11.560;2023-09-30T05:53:13;24.80;;;8.52;;
23496;SDS011;11925;48.122;11.560;2023-09-30T05:55:43;23.77;;;9.35;;
23496;SDS011;11925;48.122;11.560;2023-09-30T05:58:13;24.45;;;8.80;;
23496;SDS011;11925;48.122;11.560;2023-09-30T06:00:42;23.80;;;9.23;;
23496;SDS011;11925;48.122;11.560;2023-09-30T06:03:11;23.60;;;8.10;;
23496;SDS011;11925;48.122;11.560;2023-09-30T06:05:40;22.60;;;8.70;;
23496;SDS011;11925;48.122;11.560;2023-09-30T06:08:09;23.05;;;9.27;;
23496;SDS011;11925;48.122;11.560;2023-09-30T06:10:42;20.42;;;8.18;;
23496;SDS011;11925;48.122;11.560;2023-09-30T06:13:11;24.55;;;8.18;;
23496;SDS011;11925;48.122;11.560;2023-09-30T06:15:42;22.73;;;7.72;;
23496;SDS011;11925;48.122;11.560;2023-09-30T06:18:13;21.85;;;8.15;;
23496;SDS011;11925;48.122;11.560;2023-09-30T06:20:42;23.05;;;8.45;;
23496;SDS011;11925;48.122;11.560;2023-09-30T06:23:10;24.02;;;8.20;;
23496;SDS011;11925;48.122;11.560;2023-09-30T06:25:38;22.42;;;8.27;;
23496;SDS011;11925;48.122;11.560;2023-09-30T06:28:08;20.55;;;7.53;;
23496;SDS011;11925;48.122;11.560;2023-09-30T06:30:37;22.67;;;8.15;;
23496;SDS011;11925;48.122;11.560;2023-09-30T06:33:09;22.10;;;7.85;;
23496;SDS011;11925;48.122;11.560;2023-09-30T06:35:41;23.58;;;7.63;;
23496;SDS011;11925;48.122;11.560;2023-09-30T06:38:17;18.30;;;7.50;;
23496;SDS011;11925;48.122;11.560;2023-09-30T06:40:46;16.88;;;6.25;;
23496;SDS011;11925;48.122;11.560;2023-09-30T06:43:16;17.35;;;6.32;;
23496;SDS011;11925;48.122;11.560;2023-09-30T06:45:44;14.80;;;5.68;;
23496;SDS011;11925;48.122;11.560;2023-09-30T06:48:13;16.80;;;6.30;;
23496;SDS011;11925;48.122;11.560;2023-09-30T06:50:45;17.15;;;6.15;;
23496;SDS011;11925;48.122;11.560;2023-09-30T06:53:15;15.82;;;5.97;;
23496;SDS011;11925;48.122;11.560;2023-09-30T06:55:45;16.75;;;6.43;;
23496;SDS011;11925;48.122;11.560;2023-09-30T06:58:13;15.52;;;6.13;;
23496;SDS011;11925;48.122;11.560;2023-09-30T07:00:48;15.18;;;6.43;;
23496;SDS011;11925;48.122;11.560;2023-09-30T07:03:17;15.82;;;6.07;;
23496;SDS011;11925;48.122;11.560;2023-09-30T07:05:53;13.52;;;5.10;;
23496;SDS011;11925;48.122;11.560;2023-09-30T07:08:22;13.63;;;5.15;;
23496;SDS011;11925;48.122;11.560;2023-09-30T07:10:51;15.63;;;5.15;;
23496;SDS011;11925;48.122;11.560;2023-09-30T07:13:21;12.38;;;5.00;;
23496;SDS011;11925;48.122;11.560;2023-09-30T07:15:50;12.45;;;4.90;;
23496;SDS011;11925;48.122;11.560;2023-09-30T07:18:19;11.35;;;4.78;;
23496;SDS011;11925;48.122;11.560;2023-09-30T07:20:47;13.00;;;4.90;;
23496;SDS011;11925;48.122;11.560;2023-09-30T07:23:16;15.35;;;5.80;;
23496;SDS011;11925;48.122;11.560;2023-09-30T07:25:46;10.70;;;4.72;;
23496;SDS011;11925;48.122;11.560;2023-09-30T07:28:15;15.95;;;5.18;;
23496;SDS011;11925;48.122;11.560;2023-09-30T07:30:45;11.98;;;5.00;;
23496;SDS011;11925;48.122;11.560;2023-09-30T07:33:13;11.07;;;4.40;;
23496;SDS011;11925;48.122;11.560;2023-09-30T07:35:42;13.15;;;5.00;;
23496;SDS011;11925;48.122;11.560;2023-09-30T07:38:10;13.55;;;5.18;;
23496;SDS011;11925;48.122;11.560;2023-09-30T07:40:39;10.85;;;4.88;;
23496;SDS011;11925;48.122;11.560;2023-09-30T07:43:08;14.38;;;5.22;;
23496;SDS011;11925;48.122;11.560;2023-09-30T07:45:36;12.98;;;5.55;;
23496;SDS011;11925;48.122;11.560;2023-09-30T07:48:08;14.85;;;5.10;;
23496;SDS011;11925;48.122;11.560;2023-09-30T07:50:36;15.90;;;5.45;;
23496;SDS011;11925;48.122;11.560;2023-09-30T07:53:05;12.95;;;5.53;;
23496;SDS011;11925;48.122;11.560;2023-09-30T07:55:34;15.45;;;5.00;;
23496;SDS011;11925;48.122;11.560;2023-09-30T07:58:02;13.10;;;5.25;;
23496;SDS011;11925;48.122;11.560;2023-09-30T08:00:31;15.25;;;5.43;;
23496;SDS011;11925;48.122;11.560;2023-09-30T08:03:00;13.60;;;5.38;;
23496;SDS011;11925;48.122;11.560;2023-09-30T08:05:30;11.70;;;4.60;;
23496;SDS011;11925;48.122;11.560;2023-09-30T08:07:59;11.32;;;4.57;;
23496;SDS011;11925;48.122;11.560;2023-09-30T08:10:28;11.07;;;4.72;;
23496;SDS011;11925;48.122;11.560;2023-09-30T08:12:58;13.15;;;4.80;;
23496;SDS011;11925;48.122;11.560;2023-09-30T08:15:29;12.43;;;5.07;;
23496;SDS011;11925;48.122;11.560;2023-09-30T08:17:57;12.32;;;5.10;;
23496;SDS011;11925;48.122;11.560;2023-09-30T08:20:26;13.13;;;5.13;;
23496;SDS011;11925;48.122;11.560;2023-09-30T08:22:56;11.80;;;4.88;;
23496;SDS011;11925;48.122;11.560;2023-09-30T08:25:25;12.68;;;5.05;;
23496;SDS011;11925;48.122;11.560;2023-09-30T08:27:53;14.50;;;5.10;;
23496;SDS011;11925;48.122;11.560;2023-09-30T08:30:22;11.48;;;5.07;;
23496;SDS011;11925;48.122;11.560;2023-09-30T08:32:50;10.88;;;4.78;;
23496;SDS011;11925;48.122;11.560;2023-09-30T08:35:19;14.07;;;5.43;;
23496;SDS011;11925;48.122;11.560;2023-09-30T08:37:48;12.55;;;4.90;;
23496;SDS011;11925;48.122;11.560;2023-09-30T08:40:20;11.90;;;4.75;;
23496;SDS011;11925;48.122;11.560;2023-09-30T08:42:51;8.48;;;3.92;;
23496;SDS011;11925;48.122;11.560;2023-09-30T08:45:20;14.30;;;5.75;;
23496;SDS011;11925;48.122;11.560;2023-09-30T08:47:49;11.60;;;4.90;;
23496;SDS011;11925;48.122;11.560;2023-09-30T08:50:18;12.57;;;5.63;;
23496;SDS011;11925;48.122;11.560;2023-09-30T08:52:48;13.75;;;5.18;;
23496;SDS011;11925;48.122;11.560;2023-09-30T08:55:17;14.52;;;5.40;;
23496;SDS011;11925;48.122;11.560;2023-09-30T08:57:47;13.88;;;5.57;;
23496;SDS011;11925;48.122;11.560;2023-09-30T09:00:18;14.13;;;4.88;;
23496;SDS011;11925;48.122;11.560;2023-09-30T09:02:48;14.00;;;5.15;;
23496;SDS011;11925;48.122;11.560;2023-09-30T09:05:18;17.35;;;5.65;;
23496;SDS011;11925;48.122;11.560;2023-09-30T09:07:46;16.08;;;6.20;;
23496;SDS011;11925;48.122;11.560;2023-09-30T09:10:16;14.75;;;5.20;;
23496;SDS011;11925;48.122;11.560;2023-09-30T09:12:54;14.93;;;5.55;;
23496;SDS011;11925;48.122;11.560;2023-09-30T09:15:24;13.40;;;5.40;;
23496;SDS011;11925;48.122;11.560;2023-09-30T09:17:54;15.23;;;5.32;;
23496;SDS011;11925;48.122;11.560;2023-09-30T09:20:23;16.10;;;5.90;;
23496;SDS011;11925;48.122;11.560;2023-09-30T09:22:53;17.38;;;5.68;;
23496;SDS011;11925;48.122;11.560;2023-09-30T09:25:24;14.98;;;6.15;;
23496;SDS011;11925;48.122;11.560;2023-09-30T09:27:54;17.25;;;6.00;;
23496;SDS011;11925;48.122;11.560;2023-09-30T09:30:23;15.38;;;6.13;;
23496;SDS011;11925;48.122;11.560;2023-09-30T09:32:53;15.43;;;5.78;;
23496;SDS011;11925;48.122;11.560;2023-09-30T09:35:26;12.68;;;5.35;;
23496;SDS011;11925;48.122;11.560;2023-09-30T09:37:56;14.27;;;4.80;;
23496;SDS011;11925;48.122;11.560;2023-09-30T09:40:26;17.95;;;6.25;;
23496;SDS011;11925;48.122;11.560;2023-09-30T09:42:57;18.92;;;5.72;;
23496;SDS011;11925;48.122;11.560;2023-09-30T09:45:27;18.88;;;6.45;;
23496;SDS011;11925;48.122;11.560;2023-09-30T09:47:59;17.77;;;5.97;;
23496;SDS011;11925;48.122;11.560;2023-09-30T09:50:28;13.77;;;5.55;;
23496;SDS011;11925;48.122;11.560;2023-09-30T09:52:58;15.23;;;5.97;;
23496;SDS011;11925;48.122;11.560;2023-09-30T09:55:29;13.02;;;5.53;;
23496;SDS011;11925;48.122;11.560;2023-09-30T09:57:59;11.05;;;4.93;;
23496;SDS011;11925;48.122;11.560;2023-09-30T10:00:31;12.50;;;5.70;;
23496;SDS011;11925;48.122;11.560;2023-09-30T10:03:02;15.10;;;6.05;;
23496;SDS011;11925;48.122;11.560;2023-09-30T10:05:31;13.53;;;5.30;;
23496;SDS011;11925;48.122;11.560;2023-09-30T10:08:01;16.60;;;5.68;;
23496;SDS011;11925;48.122;11.560;2023-09-30T10:10:35;11.95;;;5.15;;
23496;SDS011;11925;48.122;11.560;2023-09-30T10:13:07;14.82;;;5.93;;
23496;SDS011;11925;48.122;11.560;2023-09-30T10:15:38;12.93;;;4.97;;
23496;SDS011;11925;48.122;11.560;2023-09-30T10:18:10;13.88;;;5.45;;
23496;SDS011;11925;48.122;11.560;2023-09-30T10:20:42;13.32;;;5.60;;
23496;SDS011;11925;48.122;11.560;2023-09-30T10:23:22;16.08;;;5.65;;
23496;SDS011;11925;48.122;11.560;2023-09-30T10:25:53;16.30;;;5.38;;
23496;SDS011;11925;48.122;11.560;2023-09-30T10:28:46;14.27;;;5.20;;
23496;SDS011;11925;48.122;11.560;2023-09-30T10:31:17;14.38;;;5.10;;
23496;SDS011;11925;48.122;11.560;2023-09-30T10:36:58;12.77;;;5.00;;
23496;SDS011;11925;48.122;11.560;2023-09-30T10:42:45;12.13;;;5.22;;
23496;SDS011;11925;48.122;11.560;2023-09-30T10:51:13;14.98;;;5.50;;
23496;SDS011;11925;48.122;11.560;2023-09-30T10:53:44;15.25;;;4.97;;
23496;SDS011;11925;48.122;11.560;2023-09-30T10:56:20;13.68;;;5.43;;
23496;SDS011;11925;48.122;11.560;2023-09-30T10:58:49;13.02;;;4.93;;
23496;SDS011;11925;48.122;11.560;2023-09-30T11:01:20;14.77;;;4.82;;
23496;SDS011;11925;48.122;11.560;2023-09-30T11:06:26;12.15;;;4.80;;
23496;SDS011;11925;48.122;11.560;2023-09-30T11:08:55;12.38;;;5.60;;
23496;SDS011;11925;48.122;11.560;2023-09-30T11:11:33;10.85;;;4.68;;
23496;SDS011;11925;48.122;11.560;2023-09-30T11:14:02;14.05;;;4.65;;
23496;SDS011;11925;48.122;11.560;2023-09-30T11:16:43;13.65;;;5.55;;
23496;SDS011;11925;48.122;11.560;2023-09-30T11:19:12;17.88;;;5.57;;
23496;SDS011;11925;48.122;11.560;2023-09-30T11:21:42;14.30;;;5.10;;
23496;SDS011;11925;48.122;11.560;2023-09-30T11:24:13;12.27;;;5.40;;
23496;SDS011;11925;48.122;11.560;2023-09-30T11:26:42;15.30;;;5.50;;
23496;SDS011;11925;48.122;11.560;2023-09-30T11:29:12;13.57;;;4.97;;
23496;SDS011;11925;48.122;11.560;2023-09-30T11:31:44;12.90;;;4.85;;
23496;SDS011;11925;48.122;11.560;2023-09-30T11:34:14;13.23;;;4.68;;
23496;SDS011;11925;48.122;11.560;2023-09-30T11:36:47;13.27;;;4.70;;
23496;SDS011;11925;48.122;11.560;2023-09-30T11:39:23;12.82;;;4.97;;
23496;SDS011;11925;48.122;11.560;2023-09-30T11:41:52;11.82;;;4.85;;
23496;SDS011;11925;48.122;11.560;2023-09-30T11:44:21;12.73;;;5.35;;
23496;SDS011;11925;48.122;11.560;2023-09-30T11:46:52;12.57;;;5.22;;
23496;SDS011;11925;48.122;11.560;2023-09-30T11:49:26;14.10;;;5.20;;
23496;SDS011;11925;48.122;11.560;2023-09-30T11:51:56;12.65;;;4.95;;
23496;SDS011;11925;48.122;11.560;2023-09-30T11:54:30;13.63;;;5.35;;
23496;SDS011;11925;48.122;11.560;2023-09-30T11:57:00;13.98;;;5.28;;
23496;SDS011;11925;48.122;11.560;2023-09-30T11:59:29;16.30;;;5.85;;
23496;SDS011;11925;48.122;11.560;2023-09-30T12:01:59;15.75;;;6.15;;
23496;SDS011;11925;48.122;11.560;2023-09-30T12:04:40;19.00;;;6.25;;
23496;SDS011;11925;48.122;11.560;2023-09-30T12:07:10;14.75;;;5.72;;
23496;SDS011;11925;48.122;11.560;2023-09-30T12:09:39;14.68;;;5.28;;
23496;SDS011;11925;48.122;11.560;2023-09-30T12:12:08;14.00;;;5.40;;
23496;SDS011;11925;48.122;11.560;2023-09-30T12:14:38;13.40;;;5.65;;
23496;SDS011;11925;48.122;11.560;2023-09-30T12:17:08;17.10;;;6.10;;
23496;SDS011;11925;48.122;11.560;2023-09-30T12:19:39;16.75;;;6.07;;
23496;SDS011;11925;48.122;11.560;2023-09-30T12:22:09;15.95;;;6.43;;
23496;SDS011;11925;48.122;11.560;2023-09-30T12:24:38;15.85;;;6.32;;
23496;SDS011;11925;48.122;11.560;2023-09-30T12:27:07;12.18;;;5.03;;
23496;SDS011;11925;48.122;11.560;2023-09-30T12:29:36;16.15;;;6.60;;
23496;SDS011;11925;48.122;11.560;2023-09-30T12:32:05;17.23;;;6.43;;
23496;SDS011;11925;48.122;11.560;2023-09-30T12:34:36;17.40;;;5.97;;
23496;SDS011;11925;48.122;11.560;2023-09-30T12:37:04;17.83;;;6.13;;
23496;SDS011;11925;48.122;11.560;2023-09-30T12:39:34;17.90;;;6.32;;
23496;SDS011;11925;48.122;11.560;2023-09-30T12:42:03;17.73;;;6.00;;
23496;SDS011;11925;48.122;11.560;2023-09-30T12:44:35;16.08;;;6.47;;
23496;SDS011;11925;48.122;11.560;2023-09-30T12:47:04;15.80;;;6.75;;
23496;SDS011;11925;48.122;11.560;2023-09-30T12:49:34;18.25;;;6.75;;
23496;SDS011;11925;48.122;11.560;2023-09-30T12:52:03;16.73;;;6.65;;
23496;SDS011;11925;48.122;11.560;2023-09-30T12:54:32;15.38;;;6.68;;
23496;SDS011;11925;48.122;11.560;2023-09-30T12:57:00;19.85;;;7.07;;
23496;SDS011;11925;48.122;11.560;2023-09-30T12:59:29;17.75;;;7.75;;
23496;SDS011;11925;48.122;11.560;2023-09-30T13:01:57;20.60;;;7.05;;
23496;SDS011;11925;48.122;11.560;2023-09-30T13:04:26;16.48;;;6.50;;
23496;SDS011;11925;48.122;11.560;2023-09-30T13:06:55;21.63;;;7.57;;
23496;SDS011;11925;48.122;11.560;2023-09-30T13:09:25;17.73;;;6.07;;
23496;SDS011;11925;48.122;11.560;2023-09-30T13:11:54;18.40;;;6.13;;
23496;SDS011;11925;48.122;11.560;2023-09-30T13:14:23;18.15;;;6.35;;
23496;SDS011;11925;48.122;11.560;2023-09-30T13:16:53;14.95;;;6.25;;
23496;SDS011;11925;48.122;11.560;2023-09-30T13:19:21;18.90;;;6.43;;
23496;SDS011;11925;48.122;11.560;2023-09-30T13:21:50;16.70;;;7.03;;
23496;SDS011;11925;48.122;11.560;2023-09-30T13:24:21;17.08;;;6.35;;
23496;SDS011;11925;48.122;11.560;2023-09-30T13:26:50;16.40;;;6.10;;
23496;SDS011;11925;48.122;11.560;2023-09-30T13:29:19;17.70;;;6.78;;
23496;SDS011;11925;48.122;11.560;2023-09-30T13:31:47;15.55;;;6.15;;
23496;SDS011;11925;48.122;11.560;2023-09-30T13:34:15;15.00;;;5.93;;
23496;SDS011;11925;48.122;11.560;2023-09-30T13:36:44;15.52;;;5.85;;
23496;SDS011;11925;48.122;11.560;2023-09-30T13:39:13;16.02;;;6.50;;
23496;SDS011;11925;48.122;11.560;2023-09-30T13:41:45;20.23;;;7.88;;
23496;SDS011;11925;48.122;11.560;2023-09-30T13:44:14;17.92;;;7.53;;
23496;SDS011;11925;48.122;11.560;2023-09-30T13:46:43;18.42;;;6.85;;
23496;SDS011;11925;48.122;11.560;2023-09-30T13:49:12;15.13;;;6.65;;
23496;SDS011;11925;48.122;11.560;2023-09-30T13:51:40;17.58;;;7.13;;
23496;SDS011;11925;48.122;11.560;2023-09-30T13:54:09;19.60;;;7.15;;
23496;SDS011;11925;48.122;11.560;2023-09-30T13:56:37;16.33;;;6.80;;
23496;SDS011;11925;48.122;11.560;2023-09-30T13:59:07;17.35;;;6.30;;
23496;SDS011;11925;48.122;11.560;2023-09-30T14:01:37;13.27;;;5.72;;
23496;SDS011;11925;48.122;11.560;2023-09-30T14:04:08;15.50;;;5.82;;
23496;SDS011;11925;48.122;11.560;2023-09-30T14:06:37;16.55;;;6.38;;
23496;SDS011;11925;48.122;11.560;2023-09-30T14:09:05;14.18;;;5.90;;
23496;SDS011;11925;48.122;11.560;2023-09-30T14:11:58;16.35;;;6.22;;
23496;SDS011;11925;48.122;11.560;2023-09-30T14:14:28;17.92;;;6.85;;
23496;SDS011;11925;48.122;11.560;2023-09-30T14:16:58;15.75;;;6.55;;
23496;SDS011;11925;48.122;11.560;2023-09-30T14:19:27;16.85;;;6.32;;
23496;SDS011;11925;48.122;11.560;2023-09-30T14:21:55;16.15;;;6.50;;
23496;SDS011;11925;48.122;11.560;2023-09-30T14:24:25;17.23;;;6.40;;
23496;SDS011;11925;48.122;11.560;2023-09-30T14:26:53;15.98;;;6.43;;
23496;SDS011;11925;48.122;11.560;2023-09-30T14:29:22;15.27;;;7.05;;
23496;SDS011;11925;48.122;11.560;2023-09-30T14:31:53;19.88;;;6.47;;
23496;SDS011;11925;48.122;11.560;2023-09-30T14:34:21;14.98;;;6.30;;
23496;SDS011;11925;48.122;11.560;2023-09-30T14:36:50;19.63;;;7.10;;
23496;SDS011;11925;48.122;11.560;2023-09-30T14:39:18;20.05;;;6.20;;
23496;SDS011;11925;48.122;11.560;2023-09-30T14:41:47;14.25;;;5.68;;
23496;SDS011;11925;48.122;11.560;2023-09-30T14:44:15;15.93;;;6.68;;
23496;SDS011;11925;48.122;11.560;2023-09-30T14:46:44;13.45;;;5.40;;
23496;SDS011;11925;48.122;11.560;2023-09-30T14:49:14;13.95;;;6.40;;
23496;SDS011;11925;48.122;11.560;2023-09-30T14:51:42;17.75;;;6.78;;